createdAt,value
2023-07-30T00:00:57.990Z,99662.98
2023-07-30T00:02:49.529Z,99663.27
2023-07-30T00:04:40.949Z,99660.95
2023-07-30T00:06:32.674Z,99659.52
2023-07-30T00:08:24.967Z,99658.38
2023-07-30T00:10:16.629Z,99658.91
2023-07-30T00:12:09.233Z,99657.36
2023-07-30T00:14:00.822Z,99658.02
2023-07-30T00:15:52.612Z,99655.94
2023-07-30T00:17:44.055Z,99659.08
2023-07-30T00:19:36.639Z,99657.01
2023-07-30T00:21:27.808Z,99659.63
2023-07-30T00:23:19.063Z,99658.58
2023-07-30T00:25:10.466Z,99659.15
2023-07-30T00:27:02.093Z,99667.02
2023-07-30T00:28:53.625Z,99668.73
2023-07-30T00:30:46.277Z,99670.33
2023-07-30T00:32:43.194Z,99673.71
2023-07-30T00:34:36.900Z,99676.41
2023-07-30T00:36:28.434Z,99680.53
2023-07-30T00:38:20.363Z,99680.77
2023-07-30T00:40:12.500Z,99687.04
2023-07-30T00:42:04.184Z,99690.30
2023-07-30T00:43:55.663Z,99690.67
2023-07-30T00:45:46.788Z,99689.02
2023-07-30T00:47:39.521Z,99689.89
2023-07-30T00:49:30.838Z,99691.58
2023-07-30T00:51:22.255Z,99695.98
2023-07-30T00:53:15.582Z,99696.48
2023-07-30T00:55:08.395Z,99694.63
2023-07-30T00:56:59.652Z,99695.32
2023-07-30T00:58:51.575Z,99691.94
2023-07-30T01:00:43.392Z,99688.52
2023-07-30T01:02:35.173Z,99690.52
2023-07-30T01:04:26.989Z,99693.02
2023-07-30T01:06:19.154Z,99693.69
2023-07-30T01:08:11.537Z,99694.14
2023-07-30T01:10:04.771Z,99691.71
2023-07-30T01:11:56.590Z,99688.52
2023-07-30T01:13:48.862Z,99690.14
2023-07-30T01:15:40.717Z,99692.65
2023-07-30T01:17:32.224Z,99693.78
2023-07-30T01:19:23.966Z,99694.61
2023-07-30T01:21:15.282Z,99691.42
2023-07-30T01:23:06.425Z,99692.34
2023-07-30T01:24:57.825Z,99696.65
2023-07-30T01:27:08.443Z,99700.05
2023-07-30T01:29:02.705Z,99697.60
2023-07-30T01:30:55.956Z,99694.85
2023-07-30T01:32:50.504Z,99700.52
2023-07-30T01:34:42.673Z,99703.63
2023-07-30T01:36:34.532Z,99707.55
2023-07-30T01:38:27.407Z,99706.97
2023-07-30T01:40:19.004Z,99710.27
2023-07-30T01:42:13.176Z,99707.73
2023-07-30T01:44:04.628Z,99710.88
2023-07-30T01:45:56.318Z,99709.53
2023-07-30T01:47:48.049Z,99707.07
2023-07-30T01:49:39.699Z,99708.63
2023-07-30T01:51:31.477Z,99708.79
2023-07-30T01:53:23.271Z,99711.59
2023-07-30T01:55:14.724Z,99709.94
2023-07-30T01:57:05.802Z,99710.33
2023-07-30T01:58:57.576Z,99712.45
2023-07-30T02:00:49.281Z,99711.03
2023-07-30T02:02:41.005Z,99712.55
2023-07-30T02:04:32.613Z,99710.61
2023-07-30T02:06:23.855Z,99712.28
2023-07-30T02:08:17.192Z,99710.50
2023-07-30T02:10:08.728Z,99707.29
2023-07-30T02:12:00.241Z,99706.52
2023-07-30T02:13:52.035Z,99711.59
2023-07-30T02:15:43.975Z,99707.95
2023-07-30T02:17:36.000Z,99712.58
2023-07-30T02:19:27.552Z,99713.02
2023-07-30T02:21:18.685Z,99714.70
2023-07-30T02:23:10.107Z,99717.63
2023-07-30T02:25:01.714Z,99721.83
2023-07-30T02:26:53.451Z,99718.81
2023-07-30T02:28:45.141Z,99724.35
2023-07-30T02:30:36.863Z,99726.04
2023-07-30T02:32:28.122Z,99729.48
2023-07-30T02:34:20.236Z,99730.30
2023-07-30T02:36:11.499Z,99734.99
2023-07-30T02:38:02.886Z,99736.77
2023-07-30T02:39:54.599Z,99739.09
2023-07-30T02:41:46.230Z,99735.52
2023-07-30T02:43:37.641Z,99734.71
2023-07-30T02:45:28.761Z,99735.31
2023-07-30T02:47:20.182Z,99740.43
2023-07-30T02:49:11.926Z,99738.19
2023-07-30T02:51:03.656Z,99741.59
2023-07-30T02:52:55.171Z,99746.50
2023-07-30T02:54:46.549Z,99750.85
2023-07-30T02:56:38.253Z,99746.57
2023-07-30T02:58:29.771Z,99746.29
2023-07-30T03:00:20.900Z,99746.95
2023-07-30T03:02:12.502Z,99749.93
2023-07-30T03:04:05.761Z,99750.77
2023-07-30T03:05:57.284Z,99747.11
2023-07-30T03:07:48.427Z,99745.73
2023-07-30T03:09:40.065Z,99747.15
2023-07-30T03:11:31.166Z,99748.91
2023-07-30T03:13:22.908Z,99746.33
2023-07-30T03:15:14.355Z,99745.61
2023-07-30T03:17:06.233Z,99746.71
2023-07-30T03:18:57.866Z,99748.58
2023-07-30T03:20:49.335Z,99748.04
2023-07-30T03:22:40.487Z,99743.88
2023-07-30T03:24:32.072Z,99739.92
2023-07-30T03:26:23.775Z,99734.92
2023-07-30T03:28:15.060Z,99737.69
2023-07-30T03:30:07.153Z,99736.61
2023-07-30T03:31:58.737Z,99735.84
2023-07-30T03:33:49.960Z,99732.63
2023-07-30T03:35:41.677Z,99731.70
2023-07-30T03:37:33.175Z,99735.52
2023-07-30T03:39:24.396Z,99734.63
2023-07-30T03:41:15.650Z,99733.33
2023-07-30T03:43:07.343Z,99738.17
2023-07-30T03:44:59.084Z,99737.69
2023-07-30T03:46:50.820Z,99734.97
2023-07-30T03:48:42.451Z,99733.17
2023-07-30T03:50:33.735Z,99736.00
2023-07-30T03:52:25.420Z,99738.23
2023-07-30T03:54:16.999Z,99739.95
2023-07-30T03:56:08.361Z,99740.77
2023-07-30T03:57:59.736Z,99739.43
2023-07-30T03:59:51.456Z,99738.95
2023-07-30T04:01:42.649Z,99736.62
2023-07-30T04:03:34.303Z,99740.32
2023-07-30T04:05:25.819Z,99742.09
2023-07-30T04:07:17.396Z,99742.48
2023-07-30T04:09:09.313Z,99746.40
2023-07-30T04:11:00.447Z,99748.44
2023-07-30T04:12:52.169Z,99749.77
2023-07-30T04:14:43.319Z,99750.00
2023-07-30T04:16:35.209Z,99748.64
2023-07-30T04:18:26.679Z,99749.66
2023-07-30T04:20:19.169Z,99751.02
2023-07-30T04:22:10.657Z,99751.14
2023-07-30T04:24:02.312Z,99753.45
2023-07-30T04:25:53.832Z,99755.25
2023-07-30T04:27:45.293Z,99751.61
2023-07-30T04:29:36.663Z,99755.52
2023-07-30T04:31:28.053Z,99754.16
2023-07-30T04:33:19.663Z,99755.41
2023-07-30T04:35:10.843Z,99756.46
2023-07-30T04:37:03.804Z,99755.54
2023-07-30T04:38:55.558Z,99758.67
2023-07-30T04:40:47.098Z,99760.20
2023-07-30T04:42:38.635Z,99765.76
2023-07-30T04:44:30.218Z,99763.98
2023-07-30T04:46:21.366Z,99759.27
2023-07-30T04:48:13.082Z,99762.46
2023-07-30T04:50:05.134Z,99763.55
2023-07-30T04:51:56.702Z,99756.44
2023-07-30T04:53:48.285Z,99756.57
2023-07-30T04:55:39.970Z,99757.55
2023-07-30T04:57:31.581Z,99760.26
2023-07-30T04:59:22.882Z,99763.98
2023-07-30T05:01:14.614Z,99767.94
2023-07-30T05:03:06.446Z,99767.48
2023-07-30T05:04:58.064Z,99770.67
2023-07-30T05:06:49.940Z,99770.31
2023-07-30T05:08:41.695Z,99765.02
2023-07-30T05:10:33.401Z,99766.01
2023-07-30T05:12:24.933Z,99762.30
2023-07-30T05:14:16.396Z,99760.41
2023-07-30T05:16:08.173Z,99764.57
2023-07-30T05:17:59.845Z,99767.70
2023-07-30T05:19:51.521Z,99767.48
2023-07-30T05:21:42.893Z,99760.67
2023-07-30T05:23:34.457Z,99763.02
2023-07-30T05:25:25.595Z,99758.77
2023-07-30T05:27:16.677Z,99755.77
2023-07-30T05:29:08.399Z,99755.93
2023-07-30T05:30:59.968Z,99753.27
2023-07-30T05:32:51.567Z,99750.54
2023-07-30T05:34:43.476Z,99751.42
2023-07-30T05:36:34.697Z,99749.57
2023-07-30T05:38:26.162Z,99752.41
2023-07-30T05:40:17.819Z,99751.39
2023-07-30T05:42:09.219Z,99753.40
2023-07-30T05:44:00.505Z,99757.23
2023-07-30T05:45:52.184Z,99760.64
2023-07-30T05:47:44.032Z,99763.75
2023-07-30T05:49:35.701Z,99766.48
2023-07-30T05:51:27.021Z,99771.90
2023-07-30T05:53:18.489Z,99773.39
2023-07-30T05:55:10.250Z,99774.90
2023-07-30T05:57:01.427Z,99773.50
2023-07-30T05:58:52.587Z,99769.42
2023-07-30T06:00:44.318Z,99772.14
2023-07-30T06:02:35.709Z,99774.98
2023-07-30T06:04:26.817Z,99777.78
2023-07-30T06:06:18.142Z,99780.30
2023-07-30T06:08:10.244Z,99781.60
2023-07-30T06:10:01.987Z,99780.77
2023-07-30T06:11:53.290Z,99779.78
2023-07-30T06:13:44.644Z,99784.54
2023-07-30T06:15:36.498Z,99789.85
2023-07-30T06:17:28.328Z,99787.86
2023-07-30T06:19:19.738Z,99786.89
2023-07-30T06:21:11.326Z,99788.82
2023-07-30T06:23:02.975Z,99790.13
2023-07-30T06:24:55.049Z,99794.08
2023-07-30T06:26:46.550Z,99797.00
2023-07-30T06:28:37.898Z,99803.04
2023-07-30T06:30:29.304Z,99804.23
2023-07-30T06:32:20.586Z,99804.82
2023-07-30T06:34:11.661Z,99806.91
2023-07-30T06:36:03.065Z,99810.29
2023-07-30T06:37:54.156Z,99810.41
2023-07-30T06:39:45.323Z,99806.36
2023-07-30T06:41:37.054Z,99805.91
2023-07-30T06:43:28.631Z,99804.91
2023-07-30T06:45:20.070Z,99809.69
2023-07-30T06:47:11.184Z,99807.38
2023-07-30T06:49:02.514Z,99809.55
2023-07-30T06:50:53.906Z,99804.16
2023-07-30T06:52:45.572Z,99800.48
2023-07-30T06:54:39.687Z,99797.67
2023-07-30T06:56:31.330Z,99801.02
2023-07-30T06:58:22.859Z,99801.89
2023-07-30T07:00:19.963Z,99803.84
2023-07-30T07:02:11.471Z,99799.20
2023-07-30T07:04:03.315Z,99802.55
2023-07-30T07:05:57.272Z,99802.23
2023-07-30T07:07:49.709Z,99803.06
2023-07-30T07:09:41.317Z,99807.02
2023-07-30T07:11:32.648Z,99807.73
2023-07-30T07:13:24.273Z,99808.64
2023-07-30T07:15:15.430Z,99809.08
2023-07-30T07:17:07.030Z,99813.04
2023-07-30T07:18:58.718Z,99811.88
2023-07-30T07:20:50.443Z,99812.34
2023-07-30T07:22:41.808Z,99817.89
2023-07-30T07:24:33.678Z,99815.34
2023-07-30T07:26:25.790Z,99814.41
2023-07-30T07:28:17.711Z,99813.20
2023-07-30T07:30:09.979Z,99809.77
2023-07-30T07:32:01.234Z,99812.46
2023-07-30T07:33:52.944Z,99811.52
2023-07-30T07:35:44.552Z,99810.91
2023-07-30T07:37:35.963Z,99807.41
2023-07-30T07:39:27.524Z,99808.38
2023-07-30T07:41:19.353Z,99809.59
2023-07-30T07:43:10.850Z,99807.60
2023-07-30T07:45:02.540Z,99810.06
2023-07-30T07:46:54.166Z,99810.02
2023-07-30T07:48:46.070Z,99807.13
2023-07-30T07:50:37.449Z,99807.60
2023-07-30T07:52:28.937Z,99805.89
2023-07-30T07:54:20.530Z,99802.24
2023-07-30T07:56:11.721Z,99806.25
2023-07-30T07:58:03.216Z,99803.96
2023-07-30T07:59:55.032Z,99805.78
2023-07-30T08:01:46.662Z,99808.21
2023-07-30T08:03:38.165Z,99807.08
2023-07-30T08:05:29.718Z,99805.68
2023-07-30T08:07:20.808Z,99804.67
2023-07-30T08:09:12.080Z,99807.77
2023-07-30T08:11:08.098Z,99804.59
2023-07-30T08:12:59.412Z,99803.55
2023-07-30T08:14:51.674Z,99805.48
2023-07-30T08:16:43.437Z,99809.66
2023-07-30T08:18:34.678Z,99809.90
2023-07-30T08:20:25.834Z,99810.52
2023-07-30T08:22:16.862Z,99805.14
2023-07-30T08:24:08.503Z,99805.70
2023-07-30T08:25:59.851Z,99803.34
2023-07-30T08:27:51.662Z,99808.17
2023-07-30T08:29:43.184Z,99810.02
2023-07-30T08:31:34.968Z,99812.55
2023-07-30T08:33:27.514Z,99811.55
2023-07-30T08:35:18.851Z,99806.65
2023-07-30T08:37:10.500Z,99804.15
2023-07-30T08:39:03.292Z,99807.10
2023-07-30T08:40:54.491Z,99808.61
2023-07-30T08:42:46.211Z,99808.12
2023-07-30T08:44:37.590Z,99810.65
2023-07-30T08:46:29.016Z,99802.44
2023-07-30T08:48:20.681Z,99802.73
2023-07-30T08:50:12.369Z,99800.05
2023-07-30T08:52:04.969Z,99800.29
2023-07-30T08:53:58.657Z,99796.91
2023-07-30T08:55:49.769Z,99798.77
2023-07-30T08:57:42.410Z,99798.05
2023-07-30T08:59:51.291Z,99795.45
2023-07-30T09:01:45.116Z,99795.81
2023-07-30T09:03:39.708Z,99795.73
2023-07-30T09:05:31.773Z,99795.65
2023-07-30T09:07:25.307Z,99797.71
2023-07-30T09:09:17.540Z,99793.80
2023-07-30T09:11:09.834Z,99790.80
2023-07-30T09:13:03.921Z,99800.48
2023-07-30T09:14:55.519Z,99798.55
2023-07-30T09:16:47.283Z,99799.94
2023-07-30T09:18:43.085Z,99792.19
2023-07-30T09:20:41.379Z,99790.95
2023-07-30T09:22:34.807Z,99789.71
2023-07-30T09:24:26.728Z,99787.36
2023-07-30T09:26:18.143Z,99788.89
2023-07-30T09:28:09.668Z,99795.36
2023-07-30T09:30:02.685Z,99791.80
2023-07-30T09:31:55.744Z,99790.80
2023-07-30T09:33:47.478Z,99788.25
2023-07-30T09:35:40.481Z,99784.11
2023-07-30T09:37:32.199Z,99780.08
2023-07-30T09:39:25.952Z,99775.98
2023-07-30T09:41:17.640Z,99775.90
2023-07-30T09:43:10.314Z,99774.69
2023-07-30T09:45:02.304Z,99777.78
2023-07-30T09:46:53.302Z,99772.02
2023-07-30T09:48:44.577Z,99771.53
2023-07-30T09:50:39.238Z,99770.60
2023-07-30T09:52:31.145Z,99768.64
2023-07-30T09:54:23.420Z,99769.05
2023-07-30T09:56:15.071Z,99766.83
2023-07-30T09:58:07.021Z,99761.34
2023-07-30T10:00:00.235Z,99764.10
2023-07-30T10:01:57.055Z,99763.03
2023-07-30T10:03:49.794Z,99761.41
2023-07-30T10:05:41.500Z,99757.73
2023-07-30T10:07:34.969Z,99756.52
2023-07-30T10:09:30.173Z,99759.55
2023-07-30T10:11:21.645Z,99760.96
2023-07-30T10:13:13.337Z,99762.23
2023-07-30T10:15:07.814Z,99762.10
2023-07-30T10:17:01.883Z,99761.34
2023-07-30T10:18:58.913Z,99760.38
2023-07-30T10:20:56.075Z,99756.55
2023-07-30T10:22:47.609Z,99759.39
2023-07-30T10:24:42.636Z,99758.66
2023-07-30T10:26:36.748Z,99758.63
2023-07-30T10:28:33.507Z,99756.53
2023-07-30T10:30:32.362Z,99754.84
2023-07-30T10:32:24.140Z,99749.73
2023-07-30T10:34:16.712Z,99749.86
2023-07-30T10:36:08.153Z,99754.80
2023-07-30T10:37:59.844Z,99754.55
2023-07-30T10:39:51.596Z,99756.32
2023-07-30T10:41:55.301Z,99754.79
2023-07-30T10:43:51.376Z,99754.59
2023-07-30T10:45:52.403Z,99754.69
2023-07-30T10:47:44.201Z,99746.14
2023-07-30T10:49:39.873Z,99749.04
2023-07-30T10:51:32.824Z,99743.90
2023-07-30T10:53:27.063Z,99742.10
2023-07-30T10:55:18.583Z,99743.70
2023-07-30T10:57:09.921Z,99737.95
2023-07-30T10:59:01.081Z,99738.02
2023-07-30T11:00:52.473Z,99736.16
2023-07-30T11:02:44.312Z,99733.94
2023-07-30T11:04:36.370Z,99735.18
2023-07-30T11:06:28.310Z,99731.75
2023-07-30T11:08:19.592Z,99732.19
2023-07-30T11:10:11.245Z,99725.23
2023-07-30T11:12:03.268Z,99717.59
2023-07-30T11:13:54.738Z,99721.05
2023-07-30T11:15:46.568Z,99721.47
2023-07-30T11:17:38.146Z,99719.89
2023-07-30T11:19:30.740Z,99721.21
2023-07-30T11:21:22.289Z,99724.75
2023-07-30T11:23:20.413Z,99724.73
2023-07-30T11:25:18.128Z,99725.19
2023-07-30T11:27:09.588Z,99721.76
2023-07-30T11:29:01.149Z,99722.23
2023-07-30T11:30:52.526Z,99717.83
2023-07-30T11:32:46.015Z,99716.27
2023-07-30T11:34:40.222Z,99722.02
2023-07-30T11:36:31.647Z,99724.24
2023-07-30T11:38:26.797Z,99724.67
2023-07-30T11:40:18.194Z,99723.05
2023-07-30T11:42:09.825Z,99723.97
2023-07-30T11:44:01.581Z,99721.36
2023-07-30T11:46:13.315Z,99721.70
2023-07-30T11:48:12.362Z,99718.98
2023-07-30T11:50:04.230Z,99719.75
2023-07-30T11:52:25.145Z,99721.14
2023-07-30T11:54:20.834Z,99723.89
2023-07-30T11:56:18.106Z,99722.41
2023-07-30T11:58:13.341Z,99727.27
2023-07-30T12:00:05.403Z,99730.55
2023-07-30T12:01:57.038Z,99733.27
2023-07-30T12:03:48.683Z,99739.70
2023-07-30T12:05:40.419Z,99741.38
2023-07-30T12:07:33.806Z,99744.88
2023-07-30T12:09:28.834Z,99749.98
2023-07-30T12:11:23.158Z,99747.95
2023-07-30T12:13:16.983Z,99748.14
2023-07-30T12:15:12.599Z,99752.30
2023-07-30T12:17:04.660Z,99744.39
2023-07-30T12:18:56.859Z,99738.64
2023-07-30T12:20:48.863Z,99732.38
2023-07-30T12:22:40.536Z,99721.25
2023-07-30T12:24:32.363Z,99721.18
2023-07-30T12:26:24.035Z,99719.59
2023-07-30T12:28:15.622Z,99720.91
2023-07-30T12:30:07.964Z,99728.87
2023-07-30T12:32:01.486Z,99728.11
2023-07-30T12:33:56.344Z,99731.18
2023-07-30T12:35:48.084Z,99738.01
2023-07-30T12:37:39.713Z,99730.38
2023-07-30T12:39:31.048Z,99732.91
2023-07-30T12:41:26.992Z,99730.36
2023-07-30T12:43:20.269Z,99726.84
2023-07-30T12:45:12.256Z,99722.40
2023-07-30T12:47:04.407Z,99719.73
2023-07-30T12:48:55.597Z,99717.91
2023-07-30T12:50:47.335Z,99719.38
2023-07-30T12:52:39.202Z,99717.55
2023-07-30T12:54:30.436Z,99712.05
2023-07-30T12:56:21.986Z,99710.36
2023-07-30T12:58:13.364Z,99707.12
2023-07-30T13:00:05.959Z,99701.89
2023-07-30T13:01:57.799Z,99704.70
2023-07-30T13:03:50.338Z,99701.20
2023-07-30T13:05:41.635Z,99699.45
2023-07-30T13:07:32.798Z,99698.77
2023-07-30T13:09:24.158Z,99700.59
2023-07-30T13:11:15.589Z,99701.66
2023-07-30T13:13:06.765Z,99696.47
2023-07-30T13:14:57.967Z,99689.66
2023-07-30T13:16:49.346Z,99688.88
2023-07-30T13:18:41.135Z,99682.58
2023-07-30T13:20:33.360Z,99676.88
2023-07-30T13:22:24.842Z,99681.34
2023-07-30T13:24:15.910Z,99674.98
2023-07-30T13:26:07.101Z,99674.30
2023-07-30T13:27:58.339Z,99671.15
2023-07-30T13:29:50.246Z,99670.24
2023-07-30T13:31:42.265Z,99666.98
2023-07-30T13:33:34.106Z,99666.16
2023-07-30T13:35:25.593Z,99667.02
2023-07-30T13:37:16.811Z,99663.69
2023-07-30T13:39:08.056Z,99667.05
2023-07-30T13:40:59.450Z,99673.11
2023-07-30T13:42:50.987Z,99681.25
2023-07-30T13:44:43.263Z,99679.52
2023-07-30T13:46:35.215Z,99678.77
2023-07-30T13:48:27.057Z,99685.91
2023-07-30T13:50:18.217Z,99684.98
2023-07-30T13:52:09.739Z,99688.58
2023-07-30T13:54:01.382Z,99685.62
2023-07-30T13:55:53.384Z,99691.02
2023-07-30T13:57:44.665Z,99681.30
2023-07-30T13:59:35.787Z,99680.14
2023-07-30T14:01:27.474Z,99673.81
2023-07-30T14:03:18.643Z,99675.89
2023-07-30T14:05:11.549Z,99673.48
2023-07-30T14:07:02.797Z,99669.58
2023-07-30T14:08:54.553Z,99660.08
2023-07-30T14:10:46.368Z,99652.20
2023-07-30T14:12:37.415Z,99649.05
2023-07-30T14:14:29.097Z,99647.20
2023-07-30T14:16:20.422Z,99649.75
2023-07-30T14:18:12.064Z,99661.31
2023-07-30T14:20:03.675Z,99662.05
2023-07-30T14:21:55.206Z,99669.08
2023-07-30T14:23:46.288Z,99677.02
2023-07-30T14:25:38.221Z,99685.77
2023-07-30T14:27:29.670Z,99694.15
2023-07-30T14:29:21.267Z,99702.83
2023-07-30T14:31:12.885Z,99703.95
2023-07-30T14:33:04.749Z,99701.40
2023-07-30T14:34:56.344Z,99692.34
2023-07-30T14:36:47.993Z,99690.73
2023-07-30T14:38:39.744Z,99690.52
2023-07-30T14:40:31.992Z,99696.55
2023-07-30T14:42:23.482Z,99726.05
2023-07-30T14:44:14.895Z,99736.36
2023-07-30T14:46:07.970Z,99753.62
2023-07-30T14:47:59.585Z,99759.89
2023-07-30T14:49:52.748Z,99764.04
2023-07-30T14:51:44.473Z,99765.94
2023-07-30T14:53:36.171Z,99766.06
2023-07-30T14:55:27.815Z,99765.21
2023-07-30T14:57:19.816Z,99780.15
2023-07-30T14:59:12.022Z,99789.69
2023-07-30T15:01:03.401Z,99786.21
2023-07-30T15:02:55.727Z,99794.65
2023-07-30T15:04:47.300Z,99791.86
2023-07-30T15:06:39.175Z,99779.83
2023-07-30T15:08:33.358Z,99765.80
2023-07-30T15:10:24.855Z,99781.58
2023-07-30T15:12:16.570Z,99793.19
2023-07-30T15:14:08.196Z,99803.52
2023-07-30T15:15:59.336Z,99801.54
2023-07-30T15:17:50.941Z,99788.55
2023-07-30T15:19:42.620Z,99782.77
2023-07-30T15:21:36.563Z,99786.77
2023-07-30T15:23:28.219Z,99800.15
2023-07-30T15:25:19.963Z,99805.38
2023-07-30T15:27:11.491Z,99797.98
2023-07-30T15:29:03.092Z,99790.02
2023-07-30T15:30:54.758Z,99791.17
2023-07-30T15:32:46.224Z,99777.61
2023-07-30T15:34:37.959Z,99773.09
2023-07-30T15:36:29.572Z,99764.38
2023-07-30T15:38:21.211Z,99752.35
2023-07-30T15:40:13.610Z,99748.98
2023-07-30T15:42:05.441Z,99733.02
2023-07-30T15:43:57.036Z,99723.42
2023-07-30T15:45:48.694Z,99718.23
2023-07-30T15:47:40.987Z,99720.56
2023-07-30T15:49:32.449Z,99719.02
2023-07-30T15:51:23.940Z,99721.02
2023-07-30T15:53:15.213Z,99722.42
2023-07-30T15:55:06.752Z,99719.59
2023-07-30T15:56:58.406Z,99717.21
2023-07-30T15:58:49.869Z,99719.09
2023-07-30T16:00:41.524Z,99722.95
2023-07-30T16:02:34.039Z,99726.79
2023-07-30T16:04:26.210Z,99718.34
2023-07-30T16:06:17.804Z,99710.33
2023-07-30T16:08:09.548Z,99706.21
2023-07-30T16:10:00.853Z,99701.45
2023-07-30T16:11:52.327Z,99700.71
2023-07-30T16:13:43.882Z,99697.88
2023-07-30T16:15:36.508Z,99691.31
2023-07-30T16:17:29.019Z,99694.05
2023-07-30T16:19:20.261Z,99694.27
2023-07-30T16:21:11.974Z,99697.48
2023-07-30T16:23:03.422Z,99702.09
2023-07-30T16:24:55.121Z,99704.14
2023-07-30T16:26:46.628Z,99705.62
2023-07-30T16:28:38.520Z,99702.88
2023-07-30T16:30:31.155Z,99703.78
2023-07-30T16:32:24.723Z,99711.27
2023-07-30T16:34:16.638Z,99720.55
2023-07-30T16:36:08.298Z,99719.75
2023-07-30T16:37:59.507Z,99717.52
2023-07-30T16:39:50.982Z,99720.67
2023-07-30T16:41:42.408Z,99719.72
2023-07-30T16:43:33.566Z,99717.51
2023-07-30T16:45:25.377Z,99719.69
2023-07-30T16:47:17.004Z,99722.93
2023-07-30T16:49:09.900Z,99722.80
2023-07-30T16:51:01.540Z,99722.83
2023-07-30T16:52:53.127Z,99731.30
2023-07-30T16:54:44.826Z,99732.34
2023-07-30T16:56:36.791Z,99737.76
2023-07-30T16:58:28.534Z,99738.13
2023-07-30T17:00:20.848Z,99746.11
2023-07-30T17:02:12.311Z,99741.29
2023-07-30T17:04:03.742Z,99728.84
2023-07-30T17:06:01.777Z,99721.27
2023-07-30T17:07:53.399Z,99719.52
2023-07-30T17:09:45.087Z,99722.24
2023-07-30T17:11:39.455Z,99728.20
2023-07-30T17:13:31.534Z,99732.63
2023-07-30T17:15:23.100Z,99735.40
2023-07-30T17:17:14.773Z,99735.20
2023-07-30T17:19:06.074Z,99734.69
2023-07-30T17:20:58.680Z,99736.02
2023-07-30T17:22:50.295Z,99732.95
2023-07-30T17:24:41.997Z,99735.95
2023-07-30T17:26:33.736Z,99740.17
2023-07-30T17:28:26.509Z,99740.96
2023-07-30T17:30:18.083Z,99740.59
2023-07-30T17:32:09.903Z,99736.78
2023-07-30T17:34:01.461Z,99731.35
2023-07-30T17:35:53.081Z,99730.92
2023-07-30T17:37:44.940Z,99735.30
2023-07-30T17:39:37.350Z,99739.75
2023-07-30T17:41:29.327Z,99737.89
2023-07-30T17:43:20.560Z,99741.23
2023-07-30T17:45:12.072Z,99737.23
2023-07-30T17:47:04.044Z,99745.41
2023-07-30T17:48:55.803Z,99746.74
2023-07-30T17:50:48.373Z,99751.03
2023-07-30T17:52:39.801Z,99752.41
2023-07-30T17:54:31.194Z,99752.42
2023-07-30T17:56:22.605Z,99747.95
2023-07-30T17:58:13.959Z,99752.29
2023-07-30T18:00:06.638Z,99751.28
2023-07-30T18:01:58.783Z,99754.19
2023-07-30T18:03:50.628Z,99755.12
2023-07-30T18:05:48.190Z,99761.80
2023-07-30T18:07:40.429Z,99762.56
2023-07-30T18:09:31.891Z,99764.10
2023-07-30T18:11:24.209Z,99768.59
2023-07-30T18:13:16.178Z,99775.13
2023-07-30T18:15:08.069Z,99780.36
2023-07-30T18:16:59.111Z,99778.19
2023-07-30T18:18:50.283Z,99786.10
2023-07-30T18:20:42.303Z,99790.34
2023-07-30T18:22:33.720Z,99791.67
2023-07-30T18:24:25.230Z,99793.02
2023-07-30T18:26:16.917Z,99793.48
2023-07-30T18:28:08.317Z,99799.39
2023-07-30T18:29:59.959Z,99798.66
2023-07-30T18:31:51.349Z,99799.77
2023-07-30T18:33:43.063Z,99797.98
2023-07-30T18:35:34.564Z,99802.38
2023-07-30T18:37:25.719Z,99807.40
2023-07-30T18:39:17.354Z,99818.92
2023-07-30T18:41:09.056Z,99860.96
2023-07-30T18:43:00.383Z,99877.98
2023-07-30T18:44:55.692Z,99861.23
2023-07-30T18:46:47.409Z,99869.25
2023-07-30T18:48:39.136Z,99847.42
2023-07-30T18:50:32.219Z,99848.11
2023-07-30T18:52:23.877Z,99844.55
2023-07-30T18:54:15.317Z,99849.90
2023-07-30T18:56:06.965Z,99854.96
2023-07-30T18:57:58.206Z,99849.30
2023-07-30T18:59:49.671Z,99853.73
2023-07-30T19:01:41.747Z,99858.37
2023-07-30T19:03:33.507Z,99857.30
2023-07-30T19:05:25.138Z,99860.37
2023-07-30T19:07:16.583Z,99867.05
2023-07-30T19:09:08.358Z,99879.50
2023-07-30T19:10:59.767Z,99891.85
2023-07-30T19:12:51.291Z,99902.75
2023-07-30T19:14:43.087Z,99905.81
2023-07-30T19:16:34.344Z,99916.77
2023-07-30T19:18:26.617Z,99922.33
2023-07-30T19:20:17.795Z,99926.98
2023-07-30T19:22:09.643Z,99922.90
2023-07-30T19:24:01.703Z,99918.09
2023-07-30T19:25:55.101Z,99933.32
2023-07-30T19:27:47.047Z,99939.90
2023-07-30T19:29:39.059Z,99936.35
2023-07-30T19:31:30.903Z,99930.80
2023-07-30T19:33:22.563Z,99930.59
2023-07-30T19:35:14.028Z,99929.77
2023-07-30T19:37:05.461Z,99925.89
2023-07-30T19:38:58.936Z,99923.44
2023-07-30T19:40:55.386Z,99929.27
2023-07-30T19:42:47.056Z,99927.87
2023-07-30T19:44:38.292Z,99930.08
2023-07-30T19:46:30.077Z,99923.74
2023-07-30T19:48:22.437Z,99921.57
2023-07-30T19:50:20.937Z,99913.02
2023-07-30T19:52:18.649Z,99918.09
2023-07-30T19:54:12.582Z,99915.52
2023-07-30T19:56:04.650Z,99915.63
2023-07-30T19:57:59.357Z,99916.89
2023-07-30T19:59:50.980Z,99917.02
2023-07-30T20:01:42.731Z,99912.61
2023-07-30T20:03:34.221Z,99915.27
2023-07-30T20:05:25.888Z,99918.00
2023-07-30T20:07:17.120Z,99923.35
2023-07-30T20:09:08.366Z,99928.36
2023-07-30T20:11:00.808Z,99926.44
2023-07-30T20:12:51.988Z,99924.85
2023-07-30T20:14:43.397Z,99926.48
2023-07-30T20:16:35.203Z,99921.59
2023-07-30T20:18:27.506Z,99913.80
2023-07-30T20:20:19.710Z,99910.10
2023-07-30T20:22:13.245Z,99910.48
2023-07-30T20:24:06.711Z,99911.83
2023-07-30T20:25:58.208Z,99913.22
2023-07-30T20:27:49.398Z,99909.34
2023-07-30T20:29:40.678Z,99911.20
2023-07-30T20:31:37.400Z,99911.70
2023-07-30T20:33:28.535Z,99908.91
2023-07-30T20:35:20.033Z,99910.92
2023-07-30T20:37:11.892Z,99905.21
2023-07-30T20:39:03.722Z,99903.73
2023-07-30T20:40:55.240Z,99901.40
2023-07-30T20:42:46.445Z,99898.36
2023-07-30T20:44:37.934Z,99896.36
2023-07-30T20:46:29.229Z,99896.02
2023-07-30T20:48:20.702Z,99897.17
2023-07-30T20:50:17.271Z,99902.07
2023-07-30T20:52:08.624Z,99907.80
2023-07-30T20:54:00.092Z,99920.77
2023-07-30T20:55:52.342Z,99924.20
2023-07-30T20:57:44.028Z,99930.44
2023-07-30T20:59:36.670Z,99930.73
2023-07-30T21:01:28.500Z,99931.08
2023-07-30T21:03:20.244Z,99925.04
2023-07-30T21:05:12.278Z,99930.36
2023-07-30T21:07:03.865Z,99937.58
2023-07-30T21:08:55.435Z,99937.52
2023-07-30T21:10:47.007Z,99946.06
2023-07-30T21:12:40.011Z,99947.23
2023-07-30T21:14:31.459Z,99950.20
2023-07-30T21:16:23.297Z,99955.77
2023-07-30T21:18:16.029Z,99948.16
2023-07-30T21:20:08.380Z,99951.52
2023-07-30T21:21:59.984Z,99950.88
2023-07-30T21:23:51.473Z,99952.91
2023-07-30T21:25:43.140Z,99951.83
2023-07-30T21:27:34.851Z,99956.83
2023-07-30T21:29:26.312Z,99957.52
2023-07-30T21:31:17.522Z,99953.84
2023-07-30T21:33:09.226Z,99958.09
2023-07-30T21:35:01.046Z,99959.98
2023-07-30T21:36:52.197Z,99967.56
2023-07-30T21:38:43.392Z,99973.58
2023-07-30T21:40:35.200Z,99974.09
2023-07-30T21:42:27.728Z,99978.39
2023-07-30T21:44:19.371Z,99979.50
2023-07-30T21:46:10.727Z,99979.80
2023-07-30T21:48:02.071Z,99983.48
2023-07-30T21:49:53.561Z,99979.34
2023-07-30T21:51:45.163Z,99977.56
2023-07-30T21:53:36.437Z,99983.49
2023-07-30T21:55:27.907Z,99989.92
2023-07-30T21:57:19.586Z,99991.65